createdAt,value
2022-08-25T00:00:33.002Z,93.44
2022-08-25T00:01:39.871Z,93.54
2022-08-25T00:03:05.280Z,93.58
2022-08-25T00:04:15.009Z,93.76
2022-08-25T00:05:36.602Z,93.18
2022-08-25T00:06:48.572Z,93.34
2022-08-25T00:09:22.832Z,93.76
2022-08-25T00:10:38.964Z,94.06
2022-08-25T00:11:59.980Z,94.91
2022-08-25T00:13:05.360Z,94.81
2022-08-25T00:14:28.797Z,94.85
2022-08-25T00:15:41.816Z,95.06
2022-08-25T00:17:01.281Z,94.82
2022-08-25T00:18:11.390Z,94.84
2022-08-25T00:19:30.960Z,94.96
2022-08-25T00:20:35.429Z,94.85
2022-08-25T00:21:45.101Z,94.69
2022-08-25T00:22:53.611Z,94.65
2022-08-25T00:24:05.723Z,94.43
2022-08-25T00:25:16.664Z,94.55
2022-08-25T00:26:24.846Z,94.60
2022-08-25T00:27:31.869Z,94.62
2022-08-25T00:28:46.007Z,94.41
2022-08-25T00:30:30.321Z,94.44
2022-08-25T00:31:43.288Z,94.08
2022-08-25T00:33:16.351Z,94.44
2022-08-25T00:34:43.493Z,94.71
2022-08-25T00:36:00.449Z,94.20
2022-08-25T00:37:39.899Z,94.11
2022-08-25T00:39:13.312Z,94.28
2022-08-25T00:40:18.108Z,94.27
2022-08-25T00:41:52.968Z,94.41
2022-08-25T00:43:03.274Z,94.48
2022-08-25T00:44:11.010Z,94.29
2022-08-25T00:45:45.679Z,94.22
2022-08-25T00:46:53.419Z,94.19
2022-08-25T00:48:50.190Z,94.27
2022-08-25T00:50:26.581Z,94.46
2022-08-25T00:51:41.686Z,94.79
2022-08-25T00:53:00.896Z,94.60
2022-08-25T00:54:36.644Z,94.52
2022-08-25T00:55:49.544Z,94.47
2022-08-25T00:56:55.540Z,94.68
2022-08-25T00:58:32.815Z,95.03
2022-08-25T00:59:44.858Z,95.17
2022-08-25T01:01:13.541Z,95.04
2022-08-25T01:02:19.441Z,95.13
2022-08-25T01:03:35.715Z,95.35
2022-08-25T01:04:51.782Z,95.22
2022-08-25T01:05:57.501Z,95.27
2022-08-25T01:07:17.464Z,95.52
2022-08-25T01:08:29.737Z,95.25
2022-08-25T01:11:47.172Z,94.87
2022-08-25T01:12:59.670Z,94.74
2022-08-25T01:14:10.531Z,94.69
2022-08-25T01:15:38.729Z,94.98
2022-08-25T01:16:47.114Z,94.69
2022-08-25T01:18:17.290Z,94.53
2022-08-25T01:20:11.060Z,94.67
2022-08-25T01:21:18.801Z,94.61
2022-08-25T01:22:55.401Z,94.51
2022-08-25T01:24:04.816Z,94.34
2022-08-25T01:25:24.209Z,94.63
2022-08-25T01:27:07.857Z,94.16
2022-08-25T01:28:30.763Z,94.06
2022-08-25T01:30:01.679Z,94.05
2022-08-25T01:31:23.934Z,94.41
2022-08-25T01:32:40.925Z,94.36
2022-08-25T01:33:54.166Z,94.55
2022-08-25T01:34:59.521Z,94.64
2022-08-25T01:36:23.446Z,94.72
2022-08-25T01:39:37.158Z,95.17
2022-08-25T01:40:56.380Z,95.17
2022-08-25T01:42:29.348Z,95.38
2022-08-25T01:44:07.617Z,95.37
2022-08-25T01:46:15.041Z,95.88
2022-08-25T01:47:19.301Z,95.61
2022-08-25T01:48:35.044Z,95.79
2022-08-25T01:49:57.998Z,95.63
2022-08-25T01:51:04.117Z,95.64
2022-08-25T01:53:01.488Z,95.73
2022-08-25T01:54:05.898Z,95.77
2022-08-25T01:58:28.761Z,95.56
2022-08-25T02:00:02.403Z,95.40
2022-08-25T02:01:59.917Z,95.97
2022-08-25T02:03:19.247Z,95.91
2022-08-25T02:04:30.908Z,96.19
2022-08-25T02:08:37.429Z,95.74
2022-08-25T02:10:03.395Z,95.24
2022-08-25T02:11:28.221Z,95.67
2022-08-25T02:12:37.317Z,95.97
2022-08-25T02:13:57.839Z,95.86
2022-08-25T02:15:48.572Z,95.71
2022-08-25T02:19:06.791Z,95.98
2022-08-25T02:21:10.689Z,95.95
2022-08-25T02:26:00.124Z,96.20
2022-08-25T02:27:13.768Z,96.15
2022-08-25T02:29:10.959Z,96.05
2022-08-25T02:31:59.207Z,95.80
2022-08-25T02:33:22.195Z,96.10
2022-08-25T02:34:52.970Z,95.86
2022-08-25T02:36:08.307Z,95.77
2022-08-25T02:37:48.260Z,95.95
2022-08-25T02:39:08.901Z,95.82
2022-08-25T02:41:13.960Z,95.43
2022-08-25T02:42:40.289Z,95.78
2022-08-25T02:43:52.562Z,95.60
2022-08-25T02:46:29.336Z,95.33
2022-08-25T02:48:15.460Z,95.27
2022-08-25T02:52:58.993Z,95.63
2022-08-25T02:57:06.838Z,95.50
2022-08-25T02:59:00.999Z,95.77
2022-08-25T03:00:34.939Z,95.77
2022-08-25T03:03:43.468Z,95.65
2022-08-25T03:04:52.113Z,95.59
2022-08-25T03:06:40.467Z,95.44
2022-08-25T03:08:17.469Z,95.34
2022-08-25T03:09:21.669Z,95.61
2022-08-25T03:10:32.884Z,95.76
2022-08-25T03:11:42.905Z,96.38
2022-08-25T03:12:48.199Z,96.59
2022-08-25T03:13:51.900Z,96.43
2022-08-25T03:15:12.956Z,96.52
2022-08-25T03:16:17.463Z,96.82
2022-08-25T03:17:24.548Z,97.14
2022-08-25T03:18:34.162Z,97.14
2022-08-25T03:19:45.580Z,97.09
2022-08-25T03:20:49.512Z,97.14
2022-08-25T03:21:56.737Z,97.34
2022-08-25T03:23:48.888Z,97.18
2022-08-25T03:25:23.471Z,96.84
2022-08-25T03:26:45.877Z,96.95
2022-08-25T03:27:52.265Z,96.86
2022-08-25T03:28:56.084Z,97.16
2022-08-25T03:30:01.111Z,97.15
2022-08-25T03:31:05.892Z,97.01
2022-08-25T03:32:11.764Z,97.11
2022-08-25T03:33:15.789Z,97.48
2022-08-25T03:34:22.110Z,97.39
2022-08-25T03:35:26.170Z,96.98
2022-08-25T03:36:33.834Z,97.02
2022-08-25T03:37:37.898Z,97.24
2022-08-25T03:38:43.158Z,97.11
2022-08-25T03:39:48.576Z,97.12
2022-08-25T03:40:53.827Z,97.29
2022-08-25T03:41:57.728Z,97.12
2022-08-25T03:43:47.592Z,97.47
2022-08-25T03:44:53.240Z,97.41
2022-08-25T03:45:58.359Z,97.35
2022-08-25T03:47:02.232Z,97.37
2022-08-25T03:48:07.090Z,97.58
2022-08-25T03:49:13.482Z,97.58
2022-08-25T03:50:21.118Z,97.47
2022-08-25T03:51:27.942Z,97.37
2022-08-25T03:52:31.556Z,97.56
2022-08-25T03:53:36.320Z,97.14
2022-08-25T03:54:39.919Z,97.15
2022-08-25T03:55:46.328Z,97.46
2022-08-25T03:56:53.471Z,97.32
2022-08-25T03:57:58.452Z,97.36
2022-08-25T03:59:02.028Z,97.71
2022-08-25T04:00:08.739Z,97.46
2022-08-25T04:01:15.884Z,97.46
2022-08-25T04:02:23.066Z,97.50
2022-08-25T04:03:26.548Z,97.41
2022-08-25T04:04:31.412Z,97.71
2022-08-25T04:05:35.553Z,98.12
2022-08-25T04:06:40.556Z,98.39
2022-08-25T04:07:44.180Z,98.36
2022-08-25T04:08:49.211Z,98.30
2022-08-25T04:09:54.533Z,98.17
2022-08-25T04:11:04.645Z,97.92
2022-08-25T04:12:14.419Z,98.04
2022-08-25T04:13:19.715Z,98.44
2022-08-25T04:14:24.024Z,98.25
2022-08-25T04:15:30.049Z,98.29
2022-08-25T04:16:35.365Z,98.61
2022-08-25T04:17:41.318Z,98.89
2022-08-25T04:18:46.561Z,99.17
2022-08-25T04:19:50.947Z,98.92
2022-08-25T04:21:04.157Z,99.05
2022-08-25T04:22:07.781Z,98.87
2022-08-25T04:23:12.660Z,98.51
2022-08-25T04:24:16.322Z,98.54
2022-08-25T04:25:20.931Z,98.45
2022-08-25T04:26:27.729Z,98.28
2022-08-25T04:27:32.517Z,98.36
2022-08-25T04:28:36.417Z,98.20
2022-08-25T04:29:40.909Z,98.22
2022-08-25T04:30:45.696Z,98.59
2022-08-25T04:31:52.162Z,98.75
2022-08-25T04:32:55.741Z,98.44
2022-08-25T04:34:04.421Z,98.70
2022-08-25T04:35:19.672Z,98.68
2022-08-25T04:36:24.059Z,98.67
2022-08-25T04:37:28.760Z,98.87
2022-08-25T04:38:32.698Z,98.72
2022-08-25T04:39:37.494Z,98.93
2022-08-25T04:40:40.822Z,98.67
2022-08-25T04:41:46.679Z,98.81
2022-08-25T04:42:50.027Z,98.71
2022-08-25T04:43:56.157Z,98.56
2022-08-25T04:45:02.208Z,98.78
2022-08-25T04:46:08.310Z,98.53
2022-08-25T04:47:12.188Z,98.63
2022-08-25T04:48:16.618Z,98.41
2022-08-25T04:49:19.941Z,98.31
2022-08-25T04:50:24.959Z,98.41
2022-08-25T04:51:31.082Z,98.28
2022-08-25T04:52:35.651Z,98.06
2022-08-25T04:53:39.698Z,98.10
2022-08-25T04:54:44.290Z,98.24
2022-08-25T04:55:48.880Z,97.96
2022-08-25T04:56:58.350Z,97.78
2022-08-25T04:58:02.202Z,97.21
2022-08-25T04:59:09.638Z,96.96
2022-08-25T05:00:15.147Z,96.69
2022-08-25T05:01:21.661Z,96.35
2022-08-25T05:02:26.729Z,95.79
2022-08-25T05:03:31.358Z,95.70
2022-08-25T05:04:37.164Z,95.41
2022-08-25T05:05:40.539Z,95.28
2022-08-25T05:06:45.419Z,95.29
2022-08-25T05:07:48.684Z,95.48
2022-08-25T05:08:53.070Z,95.33
2022-08-25T05:09:56.243Z,95.07
2022-08-25T05:11:00.740Z,95.00
2022-08-25T05:12:10.811Z,94.86
2022-08-25T05:13:15.778Z,94.74
2022-08-25T05:14:26.205Z,94.68
2022-08-25T05:15:48.199Z,94.61
2022-08-25T05:16:55.688Z,94.71
2022-08-25T05:17:58.874Z,94.87
2022-08-25T05:19:02.931Z,94.83
2022-08-25T05:20:07.879Z,95.14
2022-08-25T05:21:15.889Z,95.20
2022-08-25T05:22:20.138Z,95.31
2022-08-25T05:23:24.502Z,95.38
2022-08-25T05:24:29.858Z,95.37
2022-08-25T05:25:33.319Z,95.43
2022-08-25T05:26:38.612Z,95.48
2022-08-25T05:27:44.198Z,95.33
2022-08-25T05:28:48.910Z,95.47
2022-08-25T05:29:52.101Z,95.53
2022-08-25T05:30:59.852Z,95.49
2022-08-25T05:32:03.990Z,95.34
2022-08-25T05:33:08.846Z,95.78
2022-08-25T05:34:12.558Z,96.11
2022-08-25T05:35:17.009Z,96.18
2022-08-25T05:36:22.080Z,96.31
2022-08-25T05:37:26.629Z,96.09
2022-08-25T05:38:29.902Z,95.98
2022-08-25T05:39:34.468Z,95.65
2022-08-25T05:40:38.014Z,95.72
2022-08-25T05:41:42.520Z,95.16
2022-08-25T05:42:47.151Z,95.21
2022-08-25T05:43:51.596Z,95.75
2022-08-25T05:44:54.920Z,95.64
2022-08-25T05:45:59.918Z,94.64
2022-08-25T05:47:03.274Z,94.19
2022-08-25T05:48:07.661Z,93.82
2022-08-25T05:49:11.892Z,93.03
2022-08-25T05:50:15.306Z,92.62
2022-08-25T05:51:20.151Z,92.01
2022-08-25T05:52:23.608Z,91.32
2022-08-25T05:53:28.701Z,90.74
2022-08-25T05:54:35.378Z,90.48
2022-08-25T05:55:38.467Z,89.71
2022-08-25T05:56:42.570Z,89.07
2022-08-25T05:57:47.372Z,88.28
2022-08-25T05:58:51.762Z,87.42
2022-08-25T05:59:54.916Z,86.82
2022-08-25T06:01:21.463Z,86.37
2022-08-25T06:02:44.372Z,86.26
2022-08-25T06:03:48.021Z,85.81
2022-08-25T06:04:52.232Z,85.14
2022-08-25T06:05:55.530Z,84.58
2022-08-25T06:07:10.376Z,83.06
2022-08-25T06:08:20.349Z,82.74
2022-08-25T06:09:25.155Z,83.10
2022-08-25T06:10:28.550Z,82.35
2022-08-25T06:11:32.759Z,82.09
2022-08-25T06:12:36.660Z,81.44
2022-08-25T06:13:42.350Z,80.69
2022-08-25T06:14:46.783Z,80.35
2022-08-25T06:15:51.081Z,79.88
2022-08-25T06:16:55.451Z,78.91
2022-08-25T06:18:00.985Z,78.85
2022-08-25T06:19:06.389Z,78.04
2022-08-25T06:20:12.880Z,77.63
2022-08-25T06:21:17.119Z,77.36
2022-08-25T06:22:21.650Z,77.46
2022-08-25T06:23:24.859Z,76.52
2022-08-25T06:24:30.529Z,76.17
2022-08-25T06:25:35.511Z,76.01
2022-08-25T06:26:38.700Z,75.85
2022-08-25T06:27:43.078Z,75.32
2022-08-25T06:28:48.630Z,75.47
2022-08-25T06:29:56.038Z,75.12
2022-08-25T06:31:01.531Z,74.44
2022-08-25T06:32:05.113Z,74.18
2022-08-25T06:33:09.378Z,73.98
2022-08-25T06:34:15.003Z,73.55
2022-08-25T06:35:20.901Z,73.57
2022-08-25T06:36:25.090Z,73.61
2022-08-25T06:37:28.224Z,73.01
2022-08-25T06:38:32.490Z,71.99
2022-08-25T06:39:36.771Z,71.39
2022-08-25T06:40:39.823Z,71.05
2022-08-25T06:41:44.078Z,71.26
2022-08-25T06:42:50.308Z,71.41
2022-08-25T06:43:57.990Z,71.10
2022-08-25T06:45:10.791Z,70.73
2022-08-25T06:46:16.829Z,70.37
2022-08-25T06:47:20.386Z,70.03
2022-08-25T06:48:24.952Z,69.28
2022-08-25T06:49:31.820Z,69.09
2022-08-25T06:50:40.211Z,69.16
2022-08-25T06:51:43.420Z,68.83
2022-08-25T06:52:47.621Z,68.65
2022-08-25T06:53:51.138Z,68.59
2022-08-25T06:54:55.423Z,68.52
2022-08-25T06:56:02.261Z,68.25
2022-08-25T06:57:09.498Z,67.65
2022-08-25T06:58:12.651Z,68.05
2022-08-25T06:59:18.509Z,67.71
2022-08-25T07:00:21.763Z,67.08
2022-08-25T07:01:27.940Z,66.36
2022-08-25T07:02:31.144Z,65.95
2022-08-25T07:03:39.661Z,65.60
2022-08-25T07:04:43.950Z,65.98
2022-08-25T07:05:52.878Z,65.18
2022-08-25T07:06:57.159Z,65.10
2022-08-25T07:08:01.686Z,64.86
2022-08-25T07:09:06.666Z,64.52
2022-08-25T07:10:11.810Z,64.14
2022-08-25T07:11:17.560Z,64.16
2022-08-25T07:12:24.903Z,64.42
2022-08-25T07:13:32.040Z,64.17
2022-08-25T07:14:38.128Z,63.41
2022-08-25T07:15:42.712Z,62.93
2022-08-25T07:16:50.301Z,62.42
2022-08-25T07:17:54.879Z,62.27
2022-08-25T07:19:00.385Z,62.05
2022-08-25T07:20:05.211Z,61.44
2022-08-25T07:21:09.348Z,61.05
2022-08-25T07:22:13.643Z,61.65
2022-08-25T07:23:16.680Z,61.80
2022-08-25T07:24:20.902Z,61.75
2022-08-25T07:25:24.141Z,61.54
2022-08-25T07:26:37.833Z,61.90
2022-08-25T07:27:42.890Z,62.06
2022-08-25T07:28:47.445Z,61.51
2022-08-25T07:29:54.280Z,61.05
2022-08-25T07:31:01.286Z,60.57
2022-08-25T07:32:07.182Z,60.61
2022-08-25T07:33:11.817Z,60.30
2022-08-25T07:34:35.848Z,60.05
2022-08-25T07:35:43.780Z,59.80
2022-08-25T07:36:48.327Z,59.39
2022-08-25T07:37:55.900Z,59.64
2022-08-25T07:39:04.866Z,59.00
2022-08-25T07:40:09.591Z,59.34
2022-08-25T07:41:14.413Z,59.36
2022-08-25T07:42:18.121Z,59.17
2022-08-25T07:43:23.907Z,58.58
2022-08-25T07:44:27.901Z,58.60
2022-08-25T07:45:35.482Z,58.66
2022-08-25T07:46:38.849Z,58.31
2022-08-25T07:47:43.379Z,57.87
2022-08-25T07:48:53.095Z,58.04
2022-08-25T07:49:57.860Z,58.07
2022-08-25T07:51:07.706Z,57.32
2022-08-25T07:52:12.870Z,57.75
2022-08-25T07:53:17.660Z,57.51
2022-08-25T07:54:21.860Z,57.78
2022-08-25T07:55:37.459Z,57.72
2022-08-25T07:56:43.313Z,57.50
2022-08-25T07:57:50.921Z,57.44
2022-08-25T07:58:59.699Z,56.86
2022-08-25T08:00:03.289Z,56.40
2022-08-25T08:01:18.295Z,56.56
2022-08-25T08:02:21.744Z,56.47
2022-08-25T08:03:45.079Z,56.33
2022-08-25T08:04:50.234Z,56.34
2022-08-25T08:05:56.699Z,55.96
2022-08-25T08:06:59.857Z,55.94
2022-08-25T08:08:05.204Z,55.48
2022-08-25T08:09:08.495Z,55.60
2022-08-25T08:11:54.470Z,54.54
2022-08-25T08:12:57.669Z,54.71
2022-08-25T08:14:02.748Z,54.74
2022-08-25T08:15:10.274Z,53.96
2022-08-25T08:16:17.606Z,53.74
2022-08-25T08:17:22.240Z,53.58
2022-08-25T08:18:26.399Z,53.25
2022-08-25T08:19:30.552Z,53.47
2022-08-25T08:20:42.525Z,53.47
2022-08-25T08:21:48.931Z,53.26
2022-08-25T08:22:57.384Z,53.07
2022-08-25T08:24:00.948Z,53.20
2022-08-25T08:25:06.428Z,53.15
2022-08-25T08:26:13.661Z,53.13
2022-08-25T08:27:17.937Z,52.54
2022-08-25T08:28:21.918Z,52.22
2022-08-25T08:29:26.137Z,52.24
2022-08-25T08:30:29.215Z,51.60
2022-08-25T08:31:34.881Z,51.33
2022-08-25T08:33:08.118Z,51.74
2022-08-25T08:34:04.562Z,51.39
2022-08-25T08:35:08.549Z,51.80
2022-08-25T08:36:13.430Z,51.19
2022-08-25T08:37:17.650Z,51.22
2022-08-25T08:38:22.238Z,50.65
2022-08-25T08:39:32.000Z,50.67
2022-08-25T08:40:42.421Z,50.38
2022-08-25T08:42:16.927Z,50.63
2022-08-25T08:43:21.640Z,50.91
2022-08-25T08:44:34.268Z,50.74
2022-08-25T08:45:43.828Z,50.82
2022-08-25T08:46:56.562Z,51.43
2022-08-25T08:48:10.711Z,51.42
2022-08-25T08:49:26.763Z,51.34
2022-08-25T08:50:39.229Z,50.95
2022-08-25T08:51:48.097Z,51.50
2022-08-25T08:52:57.593Z,51.35
2022-08-25T08:54:06.468Z,51.31
2022-08-25T08:55:27.087Z,50.41
2022-08-25T08:56:37.232Z,49.59
2022-08-25T08:57:45.913Z,50.09
2022-08-25T08:58:52.540Z,50.58
2022-08-25T09:00:00.657Z,51.12
2022-08-25T09:01:04.945Z,50.84
2022-08-25T09:02:15.994Z,50.46
2022-08-25T09:03:42.360Z,50.60
2022-08-25T09:04:49.278Z,51.40
2022-08-25T09:05:55.981Z,51.84
2022-08-25T09:06:59.880Z,50.92
2022-08-25T09:08:08.821Z,50.19
2022-08-25T09:09:26.060Z,50.03
2022-08-25T09:10:34.077Z,49.96
2022-08-25T09:11:52.891Z,49.77
2022-08-25T09:13:05.747Z,49.92
2022-08-25T09:14:35.501Z,49.24
2022-08-25T09:16:03.540Z,49.43
2022-08-25T09:17:17.681Z,48.82
2022-08-25T09:18:25.960Z,49.25
2022-08-25T09:19:41.917Z,48.76
2022-08-25T09:20:59.766Z,48.95
2022-08-25T09:22:33.420Z,48.76
2022-08-25T09:23:43.078Z,48.87
2022-08-25T09:24:53.670Z,49.25
2022-08-25T09:26:04.132Z,49.50
2022-08-25T09:27:12.968Z,49.35
2022-08-25T09:28:20.729Z,49.44
2022-08-25T09:29:26.670Z,49.38
2022-08-25T09:30:44.368Z,49.67
2022-08-25T09:31:51.009Z,49.78
2022-08-25T09:33:05.111Z,49.99
2022-08-25T09:34:13.931Z,49.34
2022-08-25T09:35:22.002Z,48.57
2022-08-25T09:36:25.178Z,48.35
2022-08-25T09:37:29.572Z,48.39
2022-08-25T09:38:33.829Z,47.82
2022-08-25T09:39:37.259Z,47.43
2022-08-25T09:40:43.117Z,47.24
2022-08-25T09:41:51.474Z,46.77
2022-08-25T09:42:57.957Z,46.70
2022-08-25T09:44:01.744Z,47.20
2022-08-25T09:45:06.486Z,46.31
2022-08-25T09:46:16.052Z,46.22
2022-08-25T09:47:24.235Z,45.60
2022-08-25T09:48:39.823Z,45.84
2022-08-25T09:49:47.241Z,45.05
2022-08-25T09:50:51.638Z,44.79
2022-08-25T09:51:56.974Z,44.89
2022-08-25T09:53:18.742Z,42.95
2022-08-25T09:54:33.937Z,44.66
2022-08-25T09:55:59.915Z,45.77
2022-08-25T09:57:08.559Z,44.69
2022-08-25T09:58:20.502Z,44.94
2022-08-25T09:59:34.590Z,44.96
2022-08-25T10:00:39.413Z,45.42
2022-08-25T10:01:49.259Z,45.21
2022-08-25T10:03:24.762Z,44.64
2022-08-25T10:04:32.354Z,45.23
2022-08-25T10:05:39.100Z,44.19
2022-08-25T10:06:46.289Z,44.42
2022-08-25T10:07:53.298Z,44.16
2022-08-25T10:09:01.134Z,43.89
2022-08-25T10:10:09.997Z,43.78
2022-08-25T10:11:31.482Z,43.86
2022-08-25T10:12:42.848Z,43.29
2022-08-25T10:13:47.987Z,43.01
2022-08-25T10:14:54.551Z,42.95
2022-08-25T10:16:05.076Z,43.24
2022-08-25T10:17:29.538Z,42.76
2022-08-25T10:18:33.291Z,42.64
2022-08-25T10:19:39.140Z,43.31
2022-08-25T10:20:44.860Z,43.80
2022-08-25T10:22:06.247Z,42.98
2022-08-25T10:23:13.381Z,43.12
2022-08-25T10:24:17.948Z,42.85
2022-08-25T10:25:28.271Z,42.59
2022-08-25T10:26:37.651Z,42.20
2022-08-25T10:27:48.452Z,42.30
2022-08-25T10:29:05.163Z,41.63
2022-08-25T10:30:17.163Z,42.42
2022-08-25T10:31:22.893Z,42.72
2022-08-25T10:32:32.463Z,42.43
2022-08-25T10:33:41.688Z,42.92
2022-08-25T10:34:51.637Z,42.52
2022-08-25T10:36:01.758Z,43.07
2022-08-25T10:37:15.271Z,42.75
2022-08-25T10:38:36.126Z,43.01
2022-08-25T10:39:42.869Z,43.05
2022-08-25T10:40:49.969Z,42.62
2022-08-25T10:42:01.717Z,42.18
2022-08-25T10:43:09.412Z,42.20
2022-08-25T10:44:37.651Z,41.95
2022-08-25T10:45:48.121Z,42.88
2022-08-25T10:46:55.859Z,42.25
2022-08-25T10:48:16.882Z,41.99
2022-08-25T10:49:23.067Z,43.37
2022-08-25T10:50:33.283Z,43.67
2022-08-25T10:51:46.041Z,42.71
2022-08-25T10:53:10.780Z,43.13
2022-08-25T10:54:25.762Z,42.59
2022-08-25T10:55:33.633Z,42.54
2022-08-25T10:56:47.910Z,42.16
2022-08-25T10:58:00.786Z,41.65
2022-08-25T10:59:37.240Z,41.56
2022-08-25T11:00:48.174Z,42.58
2022-08-25T11:02:15.529Z,42.18
2022-08-25T11:03:30.216Z,42.58
2022-08-25T11:04:42.173Z,41.83
2022-08-25T11:05:49.275Z,41.96
2022-08-25T11:06:58.490Z,41.56
2022-08-25T11:08:11.494Z,41.21
2022-08-25T11:09:21.551Z,41.74
2022-08-25T11:10:29.233Z,41.27
2022-08-25T11:11:36.223Z,41.54
2022-08-25T11:12:43.739Z,41.36
2022-08-25T11:13:50.638Z,41.19
2022-08-25T11:14:57.880Z,40.58
2022-08-25T11:16:16.973Z,40.90
2022-08-25T11:17:26.032Z,40.29
2022-08-25T11:18:32.084Z,39.80
2022-08-25T11:19:38.289Z,39.72
2022-08-25T11:20:44.806Z,40.10
2022-08-25T11:21:55.689Z,39.31
2022-08-25T11:23:09.010Z,38.97
2022-08-25T11:24:36.092Z,38.24
2022-08-25T11:25:44.374Z,38.73
2022-08-25T11:26:51.510Z,39.51
2022-08-25T11:27:59.120Z,38.98
2022-08-25T11:29:11.344Z,39.23
2022-08-25T11:30:18.821Z,39.52
2022-08-25T11:31:22.447Z,38.94
2022-08-25T11:32:27.324Z,39.03
2022-08-25T11:33:32.594Z,39.09
2022-08-25T11:34:40.124Z,39.18
2022-08-25T11:35:51.909Z,38.65
2022-08-25T11:37:01.378Z,38.84
2022-08-25T11:38:19.708Z,38.72
2022-08-25T11:39:35.938Z,38.63
2022-08-25T11:40:45.968Z,38.50
2022-08-25T11:42:01.023Z,38.38
2022-08-25T11:43:13.602Z,38.40
2022-08-25T11:44:34.418Z,37.99
2022-08-25T11:45:55.195Z,38.61
2022-08-25T11:47:17.546Z,38.25
2022-08-25T11:48:32.512Z,38.46
2022-08-25T11:49:50.765Z,38.27
2022-08-25T11:51:02.294Z,37.97
2022-08-25T11:52:31.435Z,38.14
2022-08-25T11:53:37.665Z,38.32
2022-08-25T11:54:45.188Z,38.25
2022-08-25T11:55:52.070Z,38.31
2022-08-25T11:57:00.548Z,37.98
2022-08-25T11:58:32.360Z,36.55
2022-08-25T12:00:09.924Z,37.61
2022-08-25T12:01:53.631Z,37.47
2022-08-25T12:03:00.904Z,38.50
2022-08-25T12:04:15.108Z,38.16
2022-08-25T12:05:54.260Z,38.40
2022-08-25T12:07:20.350Z,36.93
2022-08-25T12:09:04.080Z,37.36
2022-08-25T12:10:21.686Z,38.51
2022-08-25T12:11:49.868Z,37.03
2022-08-25T12:13:23.421Z,37.46
2022-08-25T12:14:54.157Z,36.25
2022-08-25T12:16:00.680Z,37.33
2022-08-25T12:17:19.088Z,36.95
2022-08-25T12:18:45.636Z,35.88
2022-08-25T12:19:53.418Z,36.78
2022-08-25T12:21:15.959Z,36.03
2022-08-25T12:22:55.464Z,36.48
2022-08-25T12:24:15.698Z,34.09
2022-08-25T12:25:45.520Z,35.08
2022-08-25T12:26:57.746Z,35.66
2022-08-25T12:28:09.294Z,35.73
2022-08-25T12:29:16.431Z,35.73
2022-08-25T12:30:21.563Z,36.28
2022-08-25T12:31:34.943Z,36.22
2022-08-25T12:32:58.489Z,36.01
2022-08-25T12:34:15.408Z,36.38
2022-08-25T12:35:29.922Z,35.70
2022-08-25T12:36:36.072Z,36.43
2022-08-25T12:39:24.236Z,34.61
2022-08-25T12:40:33.752Z,35.44
2022-08-25T12:41:38.242Z,35.38
2022-08-25T12:42:44.281Z,35.74
2022-08-25T12:43:48.799Z,35.70
2022-08-25T12:45:25.725Z,34.29
2022-08-25T12:46:38.906Z,34.96
2022-08-25T12:47:44.773Z,35.22
2022-08-25T12:48:59.153Z,34.48
2022-08-25T12:50:29.671Z,34.07
2022-08-25T12:51:58.988Z,33.63
2022-08-25T12:53:11.529Z,34.01
2022-08-25T12:54:22.752Z,34.66
2022-08-25T12:55:26.999Z,34.62
2022-08-25T12:56:37.462Z,34.77
2022-08-25T12:57:43.958Z,34.48
2022-08-25T12:59:00.346Z,34.17
2022-08-25T13:00:18.415Z,34.49
2022-08-25T13:01:35.437Z,34.01
2022-08-25T13:03:13.451Z,33.93
2022-08-25T13:04:41.626Z,32.69
2022-08-25T13:06:18.662Z,33.18
2022-08-25T13:07:34.846Z,33.65
2022-08-25T13:09:00.675Z,33.72
2022-08-25T13:10:23.549Z,33.80
2022-08-25T13:11:35.290Z,33.73
2022-08-25T13:12:43.733Z,33.81
2022-08-25T13:13:52.354Z,33.86
2022-08-25T13:14:56.817Z,33.61
2022-08-25T13:16:02.616Z,33.41
2022-08-25T13:17:06.328Z,33.82
2022-08-25T13:18:31.595Z,31.07
2022-08-25T13:19:36.912Z,33.65
2022-08-25T13:20:40.169Z,33.66
2022-08-25T13:21:49.803Z,33.67
2022-08-25T13:22:58.270Z,32.71
2022-08-25T13:25:32.198Z,33.44
2022-08-25T13:26:48.022Z,33.19
2022-08-25T13:27:53.941Z,33.15
2022-08-25T13:29:02.925Z,32.46
2022-08-25T13:30:25.208Z,32.77
2022-08-25T13:31:30.775Z,32.59
2022-08-25T13:32:35.901Z,32.77
2022-08-25T13:33:40.149Z,33.00
2022-08-25T13:34:43.925Z,33.28
2022-08-25T13:35:52.182Z,33.60
2022-08-25T13:37:13.929Z,33.57
2022-08-25T13:38:20.166Z,33.58
2022-08-25T13:39:52.800Z,32.89
2022-08-25T13:40:52.086Z,33.11
2022-08-25T13:41:58.141Z,33.30
2022-08-25T13:43:12.226Z,33.41
2022-08-25T13:44:17.828Z,33.53
2022-08-25T13:45:23.839Z,33.51
2022-08-25T13:46:28.211Z,33.25
2022-08-25T13:47:43.842Z,33.09
2022-08-25T13:48:50.060Z,33.37
2022-08-25T13:49:56.617Z,33.35
2022-08-25T13:51:11.534Z,32.82
2022-08-25T13:52:20.981Z,32.39
2022-08-25T13:53:31.647Z,33.26
2022-08-25T13:54:41.092Z,33.27
2022-08-25T13:55:52.650Z,32.75
2022-08-25T13:57:05.830Z,32.76
2022-08-25T13:58:16.122Z,33.23
2022-08-25T13:59:34.318Z,33.35
2022-08-25T14:00:47.277Z,33.02
2022-08-25T14:01:54.418Z,32.76
2022-08-25T14:02:58.663Z,32.47
2022-08-25T14:04:22.081Z,31.51
2022-08-25T14:05:41.413Z,32.66
2022-08-25T14:06:45.456Z,33.48
2022-08-25T14:08:09.178Z,32.26
2022-08-25T14:09:25.939Z,33.25
2022-08-25T14:10:36.974Z,32.72
2022-08-25T14:11:46.709Z,33.16
2022-08-25T14:13:09.661Z,31.67
2022-08-25T14:14:15.559Z,32.80
2022-08-25T14:15:33.453Z,31.63
2022-08-25T14:16:43.459Z,32.74
2022-08-25T14:17:51.452Z,33.01
2022-08-25T14:18:58.884Z,32.93
2022-08-25T14:20:05.308Z,33.06
2022-08-25T14:21:12.225Z,32.63
2022-08-25T14:22:16.298Z,32.53
2022-08-25T14:23:21.220Z,31.98
2022-08-25T14:24:26.009Z,31.79
2022-08-25T14:25:30.362Z,32.49
2022-08-25T14:26:34.718Z,32.26
2022-08-25T14:28:03.731Z,32.32
2022-08-25T14:29:08.194Z,33.04
2022-08-25T14:30:13.897Z,33.06
2022-08-25T14:31:21.349Z,33.01
2022-08-25T14:32:25.576Z,32.51
2022-08-25T14:33:33.723Z,32.82
2022-08-25T14:34:39.523Z,32.71
2022-08-25T14:35:48.088Z,32.59
2022-08-25T14:36:52.280Z,32.81
2022-08-25T14:37:55.598Z,32.58
2022-08-25T14:38:59.647Z,32.74
2022-08-25T14:40:05.935Z,32.57
2022-08-25T14:42:18.159Z,32.53
2022-08-25T14:43:31.362Z,32.45
2022-08-25T14:44:36.386Z,32.46
2022-08-25T14:45:42.140Z,32.76
2022-08-25T14:46:48.045Z,32.25
2022-08-25T14:47:51.179Z,32.50
2022-08-25T14:48:57.512Z,32.23
2022-08-25T14:50:01.997Z,32.56
2022-08-25T14:51:07.108Z,32.81
2022-08-25T14:52:15.607Z,32.36
2022-08-25T14:53:21.033Z,32.88
2022-08-25T14:54:26.630Z,33.29
2022-08-25T14:55:32.244Z,33.31
2022-08-25T14:56:36.910Z,33.60
2022-08-25T14:57:42.840Z,33.73
2022-08-25T14:58:51.596Z,33.71
2022-08-25T14:59:58.717Z,33.88
2022-08-25T15:01:03.485Z,33.32
2022-08-25T15:02:09.131Z,33.65
2022-08-25T15:03:13.550Z,33.71
2022-08-25T15:04:19.521Z,33.90
2022-08-25T15:05:25.910Z,33.49
2022-08-25T15:06:30.266Z,33.19
2022-08-25T15:07:52.337Z,33.27
2022-08-25T15:09:14.055Z,33.89
2022-08-25T15:10:18.680Z,34.03
2022-08-25T15:11:25.907Z,34.09
2022-08-25T15:12:46.482Z,33.66
2022-08-25T15:13:53.450Z,33.75
2022-08-25T15:14:57.738Z,33.70
2022-08-25T15:16:01.981Z,33.54
2022-08-25T15:17:07.199Z,33.65
2022-08-25T15:18:10.499Z,33.75
2022-08-25T15:19:17.144Z,34.03
2022-08-25T15:20:20.369Z,34.27
2022-08-25T15:21:24.652Z,33.93
2022-08-25T15:22:28.790Z,33.42
2022-08-25T15:23:33.994Z,33.52
2022-08-25T15:24:39.866Z,33.96
2022-08-25T15:25:43.433Z,34.27
2022-08-25T15:26:56.313Z,34.77
2022-08-25T15:28:01.677Z,34.31
2022-08-25T15:29:07.479Z,34.35
2022-08-25T15:30:15.479Z,34.42
2022-08-25T15:31:21.784Z,35.02
2022-08-25T15:32:25.170Z,34.65
2022-08-25T15:33:32.156Z,34.80
2022-08-25T15:34:37.974Z,34.75
2022-08-25T15:35:41.648Z,34.38
2022-08-25T15:36:50.921Z,34.46
2022-08-25T15:37:53.939Z,34.78
2022-08-25T15:38:58.394Z,34.84
2022-08-25T15:40:07.116Z,35.20
2022-08-25T15:41:11.821Z,35.05
2022-08-25T15:42:16.927Z,35.33
2022-08-25T15:43:21.308Z,35.25
2022-08-25T15:44:29.724Z,35.49
2022-08-25T15:45:36.461Z,35.46
2022-08-25T15:46:41.790Z,35.63
2022-08-25T15:47:54.116Z,35.94
2022-08-25T15:48:57.925Z,35.98
2022-08-25T15:50:07.309Z,35.86
2022-08-25T15:51:12.521Z,36.24